Time;durP1;ratioP1;P1;durP2;ratioP2;P2;SDS_P1;SDS_P2;PMS_P1;PMS_P2;Temp;Humidity;BMP_temperature;BMP_pressure;BME280_temperature;BME280_humidity;BME280_pressure;Samples;Min_cycle;Max_cycle;Signal;HPM_P1;HPM_P2
2021/11/02 00:00:23;;;;;;;3.55;1.52;;;9.00;99.90;;;;;;4995532;28;20030;-74
2021/11/02 00:02:49;;;;;;;2.88;1.35;;;9.00;99.90;;;;;;4995513;28;20037;-74
2021/11/02 00:05:14;;;;;;;2.67;1.48;;;9.00;99.90;;;;;;5014405;28;20125;-75
2021/11/02 00:07:40;;;;;;;3.47;1.52;;;9.10;99.90;;;;;;5001074;28;20485;-74
2021/11/02 00:10:07;;;;;;;3.65;1.40;;;9.20;99.90;;;;;;5008797;28;20097;-74
2021/11/02 00:12:33;;;;;;;6.38;1.50;;;9.10;99.90;;;;;;5011114;28;20034;-73
2021/11/02 00:14:59;;;;;;;2.78;1.27;;;9.10;99.90;;;;;;5011653;28;20094;-74
2021/11/02 00:17:27;;;;;;;4.20;1.30;;;9.10;99.90;;;;;;5012550;28;20026;-74
2021/11/02 00:19:57;;;;;;;1.88;1.17;;;9.10;99.90;;;;;;5012325;28;20021;-74
2021/11/02 00:22:25;;;;;;;5.82;1.80;;;9.10;99.90;;;;;;5002340;28;20030;-74
2021/11/02 00:27:29;;;;;;;1.67;0.95;;;9.10;99.90;;;;;;4998489;28;20036;-74
2021/11/02 00:29:55;;;;;;;3.80;1.42;;;9.10;99.90;;;;;;4981840;28;20398;-73
2021/11/02 00:32:21;;;;;;;3.95;1.42;;;9.20;99.90;;;;;;5000286;28;20101;-73
2021/11/02 00:34:47;;;;;;;1.65;1.17;;;9.10;99.90;;;;;;4993059;28;20089;-73
2021/11/02 00:37:12;;;;;;;4.82;1.77;;;9.20;99.90;;;;;;4992077;28;20101;-74
2021/11/02 00:39:38;;;;;;;2.22;1.10;;;9.20;99.90;;;;;;4993699;28;20041;-73
2021/11/02 00:42:04;;;;;;;1.75;1.23;;;9.20;99.90;;;;;;4995412;28;20038;-73
2021/11/02 00:44:29;;;;;;;2.03;1.30;;;9.30;99.90;;;;;;4999797;28;20038;-74
2021/11/02 00:46:56;;;;;;;2.35;1.40;;;9.30;99.90;;;;;;5011619;28;20038;-75
2021/11/02 00:49:24;;;;;;;1.75;1.05;;;9.30;99.90;;;;;;5002838;28;20410;-75
2021/11/02 00:51:51;;;;;;;7.97;1.90;;;9.30;99.90;;;;;;5007679;28;20427;-75
2021/11/02 00:54:17;;;;;;;5.15;1.85;;;9.30;99.90;;;;;;4997660;28;20101;-73
2021/11/02 00:56:43;;;;;;;2.78;1.20;;;9.30;99.90;;;;;;4995106;28;20050;-75
2021/11/02 00:59:09;;;;;;;1.67;1.10;;;9.30;99.90;;;;;;4994128;28;20061;-73
2021/11/02 01:01:35;;;;;;;3.08;1.90;;;9.30;99.90;;;;;;4994933;28;20073;-73
2021/11/02 01:04:05;;;;;;;2.42;1.38;;;9.30;99.90;;;;;;5019314;28;20332;-74
2021/11/02 01:06:36;;;;;;;2.47;1.30;;;9.30;99.90;;;;;;4996239;28;20042;-74
2021/11/02 01:09:07;;;;;;;2.25;1.17;;;9.30;99.90;;;;;;4982077;28;20113;-74
2021/11/02 01:11:33;;;;;;;2.75;1.20;;;9.30;99.90;;;;;;4995310;28;20031;-74
2021/11/02 01:13:59;;;;;;;2.72;1.17;;;9.40;99.90;;;;;;4997745;28;20469;-74
2021/11/02 01:16:25;;;;;;;4.35;1.15;;;9.40;99.90;;;;;;4999543;28;20026;-75
2021/11/02 01:18:52;;;;;;;2.35;1.10;;;9.40;99.90;;;;;;4995694;28;20470;-74
2021/11/02 01:21:18;;;;;;;2.08;1.30;;;9.40;99.90;;;;;;5000580;28;20086;-74
2021/11/02 01:23:44;;;;;;;1.88;1.30;;;9.40;99.90;;;;;;5005907;28;20361;-74
2021/11/02 01:26:10;;;;;;;3.15;0.82;;;9.40;99.90;;;;;;5008292;28;20026;-74
2021/11/02 01:28:35;;;;;;;1.15;0.98;;;9.40;99.90;;;;;;5007891;28;20026;-73
2021/11/02 01:31:01;;;;;;;3.22;2.45;;;9.40;99.90;;;;;;5007161;28;20618;-75
2021/11/02 01:33:26;;;;;;;4.13;1.48;;;9.40;99.90;;;;;;4994435;28;20060;-75
2021/11/02 01:35:52;;;;;;;2.40;1.33;;;9.40;99.90;;;;;;5004001;28;20082;-73
2021/11/02 01:38:22;;;;;;;3.20;1.83;;;9.40;99.90;;;;;;5010314;28;20061;-74
2021/11/02 01:40:48;;;;;;;3.05;0.80;;;9.40;99.90;;;;;;4996760;28;20538;-74
2021/11/02 01:43:14;;;;;;;2.38;1.00;;;9.40;99.90;;;;;;4996105;28;20072;-72
2021/11/02 01:45:40;;;;;;;3.55;1.90;;;9.40;99.90;;;;;;4995884;28;20105;-73
2021/11/02 01:48:06;;;;;;;2.08;1.20;;;9.50;99.90;;;;;;4993706;28;20141;-75
2021/11/02 01:50:33;;;;;;;2.30;0.90;;;9.50;99.90;;;;;;4996665;28;20506;-73
2021/11/02 01:52:59;;;;;;;1.67;0.98;;;9.60;99.90;;;;;;5018529;28;20490;-73
2021/11/02 01:55:24;;;;;;;2.30;1.10;;;9.60;99.90;;;;;;5004046;28;20041;-73
2021/11/02 01:57:50;;;;;;;2.50;0.93;;;9.60;99.90;;;;;;4993477;28;20019;-72
2021/11/02 02:00:19;;;;;;;3.70;2.13;;;9.50;99.90;;;;;;4995836;28;20049;-72
2021/11/02 02:03:25;;;;;;;3.67;2.05;;;9.50;99.90;;;;;;4995576;28;20029;-72
2021/11/02 02:06:10;;;;;;;3.20;2.10;;;9.50;99.90;;;;;;4996779;28;20034;-73
2021/11/02 02:09:02;;;;;;;5.53;1.77;;;9.40;99.90;;;;;;4996452;28;20481;-72
2021/11/02 02:11:55;;;;;;;5.28;1.92;;;9.40;99.90;;;;;;5021937;28;20101;-74
2021/11/02 02:14:33;;;;;;;5.45;3.17;;;9.40;99.90;;;;;;5003365;28;20034;-73
2021/11/02 02:17:03;;;;;;;6.28;2.80;;;9.30;99.90;;;;;;4986148;28;20029;-73
2021/11/02 02:20:01;;;;;;;6.10;3.72;;;9.30;99.90;;;;;;4987161;28;20077;-73
2021/11/02 02:22:42;;;;;;;3.42;2.70;;;9.20;99.90;;;;;;4998138;28;20076;-72
2021/11/02 02:25:46;;;;;;;5.03;2.70;;;9.20;99.90;;;;;;4994761;28;20030;-73
2021/11/02 02:28:38;;;;;;;2.47;1.33;;;9.20;99.90;;;;;;4925659;28;20052;-74
2021/11/02 02:31:06;;;;;;;2.55;0.90;;;9.20;99.90;;;;;;4987811;28;20038;-73
2021/11/02 02:33:56;;;;;;;1.17;0.80;;;9.30;99.90;;;;;;4999355;28;20107;-73
2021/11/02 02:36:23;;;;;;;2.45;1.00;;;9.40;99.90;;;;;;5000021;28;20120;-73
2021/11/02 02:38:50;;;;;;;1.05;0.80;;;9.40;99.90;;;;;;5003365;28;20106;-73
2021/11/02 02:41:22;;;;;;;1.77;0.63;;;9.40;99.90;;;;;;5001404;28;20105;-74
2021/11/02 02:43:48;;;;;;;3.28;0.90;;;9.50;99.90;;;;;;4995343;28;20030;-74
2021/11/02 02:46:15;;;;;;;2.58;0.88;;;9.50;99.90;;;;;;5009622;28;20098;-73
2021/11/02 02:48:42;;;;;;;1.08;0.63;;;9.50;99.90;;;;;;4981211;28;20510;-74
2021/11/02 02:51:10;;;;;;;1.58;1.00;;;9.50;99.90;;;;;;4995235;28;20022;-73
2021/11/02 02:53:40;;;;;;;2.03;0.95;;;9.50;99.90;;;;;;4994630;28;20030;-74
2021/11/02 02:56:08;;;;;;;0.98;0.55;;;9.40;99.90;;;;;;4994670;28;20513;-73
2021/11/02 02:58:36;;;;;;;3.58;0.85;;;9.30;99.90;;;;;;5004357;28;20030;-73
2021/11/02 03:01:04;;;;;;;2.65;1.08;;;9.30;99.90;;;;;;4998847;28;20390;-74
2021/11/02 03:03:31;;;;;;;2.97;0.80;;;9.30;99.90;;;;;;5006818;28;20033;-74
2021/11/02 03:06:00;;;;;;;2.80;0.88;;;9.20;99.90;;;;;;4999634;28;20109;-74
2021/11/02 03:08:26;;;;;;;3.17;1.20;;;9.20;99.90;;;;;;4996362;28;20049;-74
2021/11/02 03:10:53;;;;;;;2.15;0.90;;;9.10;99.90;;;;;;4994023;28;20494;-74
2021/11/02 03:13:20;;;;;;;1.65;0.80;;;9.00;99.90;;;;;;4994146;28;20065;-74
2021/11/02 03:48:58;;;;;;;2.33;0.88;;;8.80;99.90;;;;;;4997601;28;20029;-74
2021/11/02 03:57:11;;;;;;;2.92;1.08;;;8.60;99.90;;;;;;5010523;28;20037;-73
2021/11/02 04:27:39;;;;;;;1.33;0.90;;;8.10;99.90;;;;;;4995227;28;20509;-74
2021/11/02 06:07:00;;;;;;;3.08;1.30;;;7.10;99.90;;;;;;4990782;28;20029;-77
2021/11/02 06:09:41;;;;;;;2.35;1.10;;;7.10;99.90;;;;;;5002838;28;20025;-77
2021/11/02 06:29:20;;;;;;;3.33;2.53;;;7.20;99.90;;;;;;5001710;28;20045;-76
2021/11/02 06:32:05;;;;;;;3.65;1.70;;;7.10;99.90;;;;;;5008736;28;20034;-76
2021/11/02 06:50:48;;;;;;;5.70;2.95;;;7.40;99.90;;;;;;5005493;28;20454;-74
2021/11/02 06:53:43;;;;;;;3.78;1.52;;;7.50;99.90;;;;;;5005377;28;20058;-76
2021/11/02 07:16:39;;;;;;;3.10;1.55;;;7.90;99.90;;;;;;4983034;28;20726;-77
2021/11/02 07:19:24;;;;;;;3.38;1.48;;;8.00;99.90;;;;;;4979348;28;20066;-76
2021/11/02 07:27:05;;;;;;;2.30;1.60;;;8.30;99.90;;;;;;4977008;28;20034;-77
2021/11/02 08:45:11;;;;;;;6.85;1.17;;;11.20;99.90;;;;;;4943191;29;20135;-78
2021/11/02 08:47:40;;;;;;;0.97;0.63;;;11.20;99.90;;;;;;4928354;29;20038;-79
2021/11/02 08:50:09;;;;;;;4.10;0.90;;;11.20;99.90;;;;;;4934702;28;20024;-79
2021/11/02 08:52:36;;;;;;;2.40;1.00;;;11.20;99.90;;;;;;5011889;28;20034;-78
2021/11/02 08:55:05;;;;;;;3.50;0.98;;;11.10;99.90;;;;;;5015453;28;20018;-79
2021/11/02 08:57:32;;;;;;;2.08;0.90;;;10.90;99.90;;;;;;5016970;28;20023;-78
2021/11/02 08:59:58;;;;;;;1.67;0.88;;;10.90;99.90;;;;;;5013713;28;20022;-77
2021/11/02 09:02:33;;;;;;;1.63;0.77;;;10.80;99.90;;;;;;5011260;28;20040;-77
2021/11/02 09:05:06;;;;;;;1.13;0.90;;;10.80;99.90;;;;;;5007970;28;20053;-78
2021/11/02 09:07:33;;;;;;;1.77;0.90;;;10.80;99.90;;;;;;4997531;28;20034;-79
2021/11/02 09:09:59;;;;;;;1.05;0.85;;;10.80;99.90;;;;;;5008985;28;20030;-79
2021/11/02 09:12:32;;;;;;;7.25;1.20;;;10.90;99.90;;;;;;5007574;28;20041;-77
2021/11/02 09:15:03;;;;;;;3.15;1.00;;;10.90;99.90;;;;;;5017293;28;20022;-78
2021/11/02 09:17:32;;;;;;;3.30;0.88;;;10.80;99.90;;;;;;5006143;28;20034;-77
2021/11/02 09:20:02;;;;;;;3.90;0.90;;;10.90;99.90;;;;;;5001346;28;20110;-77
2021/11/02 09:22:31;;;;;;;5.03;1.30;;;10.90;99.90;;;;;;5001751;28;20387;-76
2021/11/02 09:24:57;;;;;;;2.67;1.10;;;10.90;99.90;;;;;;5003382;28;20026;-77
2021/11/02 09:27:24;;;;;;;5.70;0.70;;;10.70;99.90;;;;;;5001441;28;20022;-76
2021/11/02 09:29:51;;;;;;;2.60;0.88;;;10.70;99.90;;;;;;5001970;28;20475;-77
2021/11/02 09:32:17;;;;;;;5.80;0.90;;;10.50;99.90;;;;;;5007839;28;20102;-78
2021/11/02 09:34:43;;;;;;;4.03;1.13;;;10.40;99.90;;;;;;4999381;28;20019;-78
2021/11/02 09:37:24;;;;;;;2.15;0.80;;;10.30;99.90;;;;;;4998517;28;20057;-78
2021/11/02 09:39:52;;;;;;;3.70;0.90;;;10.20;99.90;;;;;;4982134;28;20034;-78
2021/11/02 09:42:36;;;;;;;2.17;1.48;;;10.20;99.90;;;;;;4990986;28;20030;-79
2021/11/02 09:45:33;;;;;;;2.58;1.10;;;10.10;99.90;;;;;;4991176;28;20034;-78
2021/11/02 09:48:36;;;;;;;1.77;0.70;;;10.00;99.90;;;;;;4973608;28;20467;-79
2021/11/02 09:51:30;;;;;;;4.32;0.70;;;10.00;99.90;;;;;;4979627;28;20027;-78
2021/11/02 09:54:31;;;;;;;2.70;1.25;;;9.90;99.90;;;;;;4979301;28;20027;-78
2021/11/02 09:57:59;;;;;;;4.88;1.05;;;9.90;99.90;;;;;;4992896;28;20026;-78
2021/11/02 10:00:44;;;;;;;2.15;1.33;;;9.90;99.90;;;;;;4979797;28;20070;-78
2021/11/02 10:03:10;;;;;;;6.63;1.13;;;10.00;99.90;;;;;;4966469;28;20034;-79
2021/11/02 10:05:41;;;;;;;4.05;1.15;;;9.90;99.90;;;;;;4984413;28;20045;-78
2021/11/02 10:08:23;;;;;;;;;;;9.90;99.90;;;;;;4980466;28;20014;-77
2021/11/02 10:11:29;;;;;;;4.57;1.30;;;9.80;99.90;;;;;;4982052;28;19914;-78
2021/11/02 10:14:15;;;;;;;3.67;0.82;;;9.80;99.90;;;;;;4982490;28;20034;-78
2021/11/02 10:16:52;;;;;;;3.65;1.20;;;9.90;99.90;;;;;;4983256;28;20469;-78
2021/11/02 10:19:33;;;;;;;3.45;1.20;;;9.90;99.90;;;;;;4980611;28;20094;-77
2021/11/02 10:22:04;;;;;;;4.13;1.42;;;10.00;99.90;;;;;;4991906;28;20015;-77
2021/11/02 10:24:40;;;;;;;4.82;1.30;;;10.00;99.90;;;;;;4992192;28;20022;-77
2021/11/02 10:27:18;;;;;;;2.40;1.40;;;10.00;99.90;;;;;;4988332;28;20074;-77
2021/11/02 10:30:13;;;;;;;3.83;1.30;;;10.00;99.90;;;;;;4970968;28;20019;-78
2021/11/02 10:32:41;;;;;;;6.45;1.48;;;10.00;99.90;;;;;;4962916;28;20109;-78
2021/11/02 10:35:17;;;;;;;5.03;1.52;;;10.10;99.90;;;;;;4974198;28;20057;-77
2021/11/02 10:38:08;;;;;;;2.47;1.05;;;10.10;99.90;;;;;;4973177;28;20118;-78
2021/11/02 10:40:50;;;;;;;3.97;1.45;;;10.00;99.90;;;;;;5015642;28;20035;-78
2021/11/02 10:43:27;;;;;;;4.40;1.17;;;10.00;99.90;;;;;;4984029;28;20031;-79
2021/11/02 10:46:02;;;;;;;5.20;1.23;;;10.10;99.90;;;;;;4980401;28;20090;-79
2021/11/02 10:48:43;;;;;;;2.20;1.38;;;10.00;99.90;;;;;;4980617;28;20582;-76
2021/11/02 10:51:27;;;;;;;2.83;1.92;;;10.00;99.90;;;;;;4979508;28;20039;-77
2021/11/02 10:54:06;;;;;;;5.60;2.13;;;10.10;99.90;;;;;;4977014;28;20125;-77
2021/11/02 10:56:44;;;;;;;2.80;1.33;;;10.10;99.90;;;;;;4979872;28;20074;-77
2021/11/02 10:59:16;;;;;;;2.65;1.25;;;10.10;99.90;;;;;;4993682;28;20026;-76
2021/11/02 11:01:47;;;;;;;3.47;1.20;;;10.00;99.90;;;;;;4988072;28;20046;-76
2021/11/02 11:04:14;;;;;;;8.77;1.83;;;10.10;99.90;;;;;;4986398;28;20018;-77
2021/11/02 11:06:45;;;;;;;3.20;1.40;;;10.10;99.90;;;;;;4970710;28;20027;-76
2021/11/02 11:09:12;;;;;;;3.63;1.20;;;10.10;99.90;;;;;;4978274;28;20027;-76
2021/11/02 11:11:45;;;;;;;6.45;1.00;;;10.10;99.90;;;;;;4977519;28;20438;-77
2021/11/02 11:14:13;;;;;;;1.67;1.00;;;10.20;99.90;;;;;;4977836;28;20039;-76
2021/11/02 11:16:46;;;;;;;2.92;1.38;;;10.30;99.90;;;;;;4979009;28;19999;-77
2021/11/02 11:19:27;;;;;;;3.30;1.45;;;10.20;99.90;;;;;;4978737;28;20022;-76
2021/11/02 11:21:53;;;;;;;7.38;1.30;;;10.20;99.90;;;;;;4961486;28;20548;-75
2021/11/02 11:24:35;;;;;;;2.17;1.10;;;10.20;99.90;;;;;;4979083;28;20043;-76
2021/11/02 11:27:09;;;;;;;2.60;1.10;;;10.30;99.90;;;;;;4978502;28;20107;-76
2021/11/02 11:29:43;;;;;;;4.22;1.35;;;10.40;99.90;;;;;;4974936;28;20041;-76
2021/11/02 11:32:09;;;;;;;1.60;1.25;;;10.60;99.90;;;;;;4986204;28;20084;-77
2021/11/02 11:34:42;;;;;;;1.45;1.30;;;10.80;99.90;;;;;;4985751;28;20106;-77
2021/11/02 11:37:08;;;;;;;;;;;10.70;99.90;;;;;;4987441;28;20053;-77
2021/11/02 11:39:34;;;;;;;3.25;1.27;;;10.80;99.90;;;;;;4988297;28;19991;-77
2021/11/02 11:42:01;;;;;;;2.63;0.95;;;10.90;99.90;;;;;;5003651;28;20035;-77
2021/11/02 11:44:28;;;;;;;1.88;1.48;;;11.00;99.90;;;;;;4984841;28;20039;-77
2021/11/02 11:47:08;;;;;;;2.28;0.90;;;11.10;99.90;;;;;;5009519;23;20045;-76
2021/11/02 11:49:36;;;;;;;2.70;1.10;;;11.20;99.90;;;;;;4996012;28;20561;-77
2021/11/02 11:52:04;;;;;;;2.53;1.40;;;11.20;99.90;;;;;;4996015;28;20088;-78
2021/11/02 11:54:47;;;;;;;3.55;1.00;;;11.40;99.90;;;;;;4997448;28;20386;-77
2021/11/02 11:57:15;;;;;;;2.03;1.00;;;11.60;99.90;;;;;;4994858;28;20014;-78
2021/11/02 11:59:41;;;;;;;4.45;0.95;;;11.80;99.90;;;;;;4999498;28;20614;-79
2021/11/02 12:02:32;;;;;;;1.63;0.98;;;11.90;99.90;;;;;;4999818;28;20022;-77
2021/11/02 12:05:16;;;;;;;1.17;1.08;;;11.90;99.90;;;;;;4996813;28;20084;-77
2021/11/02 12:08:15;;;;;;;1.08;0.63;;;11.90;99.90;;;;;;4996174;28;20035;-77
2021/11/02 12:10:42;;;;;;;0.90;0.60;;;12.00;99.90;;;;;;4995653;28;20154;-77
2021/11/02 12:13:13;;;;;;;1.23;0.70;;;12.00;99.90;;;;;;4998930;28;20034;-76
2021/11/02 12:15:47;;;;;;;0.75;0.68;;;11.90;99.90;;;;;;5004149;28;20038;-78
2021/11/02 12:18:16;;;;;;;2.95;1.25;;;11.70;99.90;;;;;;5008217;28;20136;-77
2021/11/02 12:20:42;;;;;;;1.00;0.70;;;11.70;99.90;;;;;;4997153;28;20030;-77
2021/11/02 12:23:18;;;;;;;1.23;0.60;;;11.60;99.90;;;;;;4998456;28;20026;-78
2021/11/02 12:25:51;;;;;;;2.05;0.77;;;11.50;99.90;;;;;;5004110;28;20022;-80
2021/11/02 12:28:29;;;;;;;0.50;0.50;;;11.50;99.90;;;;;;4998165;28;20067;-78
2021/11/02 12:31:07;;;;;;;0.70;0.60;;;11.40;99.90;;;;;;5005909;28;20102;-76
2021/11/02 12:33:35;;;;;;;0.60;0.60;;;11.30;99.90;;;;;;4997089;28;20098;-78
2021/11/02 12:36:04;;;;;;;0.68;0.50;;;11.10;99.90;;;;;;4999775;28;20032;-78
2021/11/02 12:38:35;;;;;;;1.33;0.65;;;11.10;99.90;;;;;;5007423;28;20037;-78
2021/11/02 12:41:02;;;;;;;1.02;0.55;;;11.10;99.90;;;;;;5003325;28;20387;-77
2021/11/02 12:43:31;;;;;;;0.45;0.40;;;11.20;99.90;;;;;;5009398;28;20035;-78
2021/11/02 12:46:02;;;;;;;0.80;0.60;;;11.30;99.90;;;;;;5011358;28;20082;-79
2021/11/02 12:48:30;;;;;;;0.57;0.52;;;11.30;99.90;;;;;;5007597;28;20517;-78
2021/11/02 12:50:56;;;;;;;1.33;0.50;;;11.40;99.90;;;;;;5002827;28;20102;-79
2021/11/02 12:53:22;;;;;;;0.82;0.50;;;11.40;99.90;;;;;;5002138;28;20583;-78
2021/11/02 12:55:48;;;;;;;0.32;0.32;;;11.40;99.90;;;;;;5001972;28;20054;-79
2021/11/02 12:58:20;;;;;;;6.35;0.93;;;11.50;99.90;;;;;;5001923;28;20022;-79
2021/11/02 13:00:59;;;;;;;2.45;0.40;;;11.50;99.90;;;;;;5003599;28;20042;-79
2021/11/02 13:03:29;;;;;;;0.30;0.30;;;11.50;99.90;;;;;;5003283;28;20054;-79
2021/11/02 13:06:07;;;;;;;1.27;0.60;;;11.70;99.90;;;;;;5002706;28;20094;-79
2021/11/02 13:08:57;;;;;;;0.50;0.38;;;12.00;99.90;;;;;;5003228;28;20031;-78
2021/11/02 13:11:26;;;;;;;2.38;0.57;;;12.30;99.90;;;;;;5003479;28;20486;-77
2021/11/02 13:14:19;;;;;;;0.75;0.40;;;12.30;99.90;;;;;;4998798;28;20498;-77
2021/11/02 13:17:02;;;;;;;0.43;0.40;;;12.30;99.90;;;;;;5000706;28;20034;-78
2021/11/02 13:19:39;;;;;;;0.63;0.35;;;12.40;99.90;;;;;;4997728;28;20026;-78
2021/11/02 13:22:27;;;;;;;0.40;0.30;;;12.10;99.90;;;;;;4998462;28;20486;-77
2021/11/02 13:25:12;;;;;;;0.52;0.52;;;11.90;99.90;;;;;;4997973;28;20022;-80
2021/11/02 13:27:44;;;;;;;1.50;0.55;;;11.80;99.90;;;;;;5001183;28;20049;-81
2021/11/02 13:30:36;;;;;;;0.65;0.30;;;11.70;99.90;;;;;;5017353;28;20442;-81
2021/11/02 13:33:09;;;;;;;0.43;0.40;;;11.60;99.90;;;;;;5009868;28;20037;-80
2021/11/02 13:35:45;;;;;;;0.30;0.30;;;11.50;99.90;;;;;;5003745;28;20490;-81
2021/11/02 13:38:21;;;;;;;0.50;0.40;;;11.50;99.90;;;;;;5004367;28;20027;-81
2021/11/02 13:40:46;;;;;;;0.52;0.32;;;11.40;99.90;;;;;;5003120;28;20102;-79
2021/11/02 13:43:26;;;;;;;1.58;0.32;;;11.30;99.90;;;;;;5001027;28;20054;-79
2021/11/02 13:45:53;;;;;;;0.43;0.40;;;11.40;99.90;;;;;;5001461;28;20054;-80
2021/11/02 13:48:19;;;;;;;0.60;0.40;;;11.30;99.90;;;;;;5002658;28;20042;-81
2021/11/02 13:50:45;;;;;;;0.30;0.28;;;11.30;99.90;;;;;;5003959;28;20039;-81
2021/11/02 13:53:11;;;;;;;0.38;0.30;;;11.30;99.90;;;;;;5008079;28;20026;-80
2021/11/02 13:55:37;;;;;;;0.93;0.43;;;11.30;99.90;;;;;;5013651;28;20074;-80
2021/11/02 13:58:03;;;;;;;0.63;0.47;;;11.20;99.90;;;;;;5008806;28;20050;-81
2021/11/02 14:00:31;;;;;;;0.47;0.40;;;11.30;99.90;;;;;;5003588;28;20022;-79
2021/11/02 14:03:02;;;;;;;1.27;0.40;;;11.30;99.90;;;;;;5006009;28;20030;-79
2021/11/02 14:05:29;;;;;;;0.63;0.43;;;11.30;99.90;;;;;;5001893;28;20027;-81
2021/11/02 14:07:58;;;;;;;0.80;0.52;;;11.40;99.90;;;;;;5003437;28;20041;-81
2021/11/02 14:10:30;;;;;;;1.15;0.57;;;11.30;99.90;;;;;;5002252;28;20026;-80
2021/11/02 14:12:56;;;;;;;0.30;0.30;;;11.30;99.90;;;;;;5001165;28;20090;-80
2021/11/02 14:15:23;;;;;;;0.28;0.28;;;11.60;99.90;;;;;;5002278;28;20081;-81
2021/11/02 14:17:57;;;;;;;3.90;0.35;;;11.70;99.90;;;;;;5002591;28;20042;-79
2021/11/02 14:20:49;;;;;;;1.67;0.73;;;11.70;99.90;;;;;;5005837;28;20028;-82
2021/11/02 14:23:29;;;;;;;1.40;0.60;;;11.70;99.90;;;;;;4999177;28;20371;-81
2021/11/02 14:26:35;;;;;;;0.52;0.40;;;11.70;99.90;;;;;;5014703;28;20026;-81
2021/11/02 14:29:08;;;;;;;0.85;0.38;;;11.90;99.90;;;;;;5000016;28;20372;-79
2021/11/02 14:31:34;;;;;;;0.88;0.57;;;11.80;99.90;;;;;;5000183;28;20114;-80
2021/11/02 14:34:00;;;;;;;0.28;0.28;;;11.70;99.90;;;;;;4984751;28;20047;-80
2021/11/02 14:36:40;;;;;;;0.55;0.50;;;11.70;99.90;;;;;;4982441;28;20034;-80
2021/11/02 14:39:07;;;;;;;0.50;0.40;;;11.70;99.90;;;;;;4981284;28;20026;-82
2021/11/02 14:41:35;;;;;;;1.00;0.40;;;11.60;99.90;;;;;;4982262;28;20058;-79
2021/11/02 14:44:24;;;;;;;0.63;0.40;;;11.60;99.90;;;;;;4986313;28;20086;-79
2021/11/02 14:46:53;;;;;;;0.55;0.40;;;11.60;99.90;;;;;;4986980;28;20035;-80
2021/11/02 14:49:37;;;;;;;0.73;0.63;;;11.60;99.90;;;;;;4995175;28;20094;-81
2021/11/02 14:52:09;;;;;;;0.52;0.30;;;11.60;99.90;;;;;;4997909;28;20098;-82
2021/11/02 14:54:45;;;;;;;4.15;0.32;;;11.60;99.90;;;;;;4996207;28;20058;-82
2021/11/02 14:57:20;;;;;;;0.77;0.50;;;11.60;99.90;;;;;;4996311;28;20019;-82
2021/11/02 14:59:57;;;;;;;0.98;0.45;;;11.40;99.90;;;;;;4990922;28;20023;-81
2021/11/02 15:02:42;;;;;;;0.43;0.40;;;11.40;99.90;;;;;;4982941;28;20077;-80
2021/11/02 15:05:15;;;;;;;1.52;1.05;;;11.50;99.90;;;;;;4983392;28;20027;-81
2021/11/02 15:07:43;;;;;;;0.30;0.25;;;11.30;99.90;;;;;;4982740;28;20027;-80
2021/11/02 15:10:11;;;;;;;1.58;0.50;;;11.10;99.90;;;;;;4981928;28;20027;-80
2021/11/02 15:12:38;;;;;;;0.88;0.40;;;11.20;99.90;;;;;;4986180;28;20113;-79
2021/11/02 15:15:07;;;;;;;1.15;0.70;;;11.00;99.90;;;;;;4987487;28;20118;-80
2021/11/02 15:17:35;;;;;;;1.88;0.52;;;10.90;99.90;;;;;;4995307;28;20046;-81
2021/11/02 15:20:01;;;;;;;2.88;0.63;;;10.80;99.90;;;;;;4992088;28;20021;-82
2021/11/02 15:22:30;;;;;;;0.90;0.50;;;10.80;99.90;;;;;;4992078;28;20031;-83
2021/11/02 15:25:03;;;;;;;1.17;0.50;;;10.70;99.90;;;;;;4993011;28;20441;-80
2021/11/02 15:27:32;;;;;;;1.95;0.50;;;10.60;99.90;;;;;;4989759;28;20054;-81
2021/11/02 15:29:59;;;;;;;1.20;0.77;;;10.50;99.90;;;;;;4983463;28;20027;-80
2021/11/02 15:32:27;;;;;;;0.60;0.43;;;10.40;99.90;;;;;;4981588;28;20069;-80
2021/11/02 15:34:58;;;;;;;1.60;0.68;;;10.30;99.90;;;;;;4981365;28;20019;-80
2021/11/02 15:37:28;;;;;;;0.73;0.60;;;10.30;99.90;;;;;;4997722;28;20575;-81
2021/11/02 15:40:22;;;;;;;0.40;0.30;;;10.30;99.90;;;;;;4999914;28;20029;-80
2021/11/02 15:42:54;;;;;;;0.70;0.40;;;10.20;99.90;;;;;;4998963;28;20026;-79
2021/11/02 15:45:32;;;;;;;0.90;0.40;;;10.10;99.90;;;;;;4998954;28;20102;-80
2021/11/02 15:48:27;;;;;;;2.17;1.13;;;9.90;99.90;;;;;;5001513;28;20030;-80
2021/11/02 15:50:56;;;;;;;0.80;0.50;;;9.90;99.90;;;;;;4992496;28;20069;-81
2021/11/02 15:53:28;;;;;;;0.50;0.30;;;9.70;99.90;;;;;;5002814;28;20118;-83
2021/11/02 15:55:59;;;;;;;0.60;0.50;;;9.60;99.90;;;;;;5003762;28;20015;-80
2021/11/02 15:58:29;;;;;;;0.55;0.38;;;9.70;99.90;;;;;;5012025;28;20019;-80
2021/11/02 16:00:55;;;;;;;0.83;0.70;;;9.60;99.90;;;;;;5010896;28;20060;-80
2021/11/02 16:03:30;;;;;;;1.15;0.60;;;9.50;99.90;;;;;;4998178;28;20545;-82
2021/11/02 16:05:55;;;;;;;39.55;27.45;;;9.40;99.90;;;;;;4999988;28;20040;-81
2021/11/02 16:08:23;;;;;;;2.67;1.85;;;9.40;99.90;;;;;;4998032;28;20498;-81
2021/11/02 16:10:49;;;;;;;0.68;0.57;;;9.40;99.90;;;;;;5002735;28;20050;-80
2021/11/02 16:13:15;;;;;;;0.35;0.35;;;9.40;99.90;;;;;;5003645;28;20073;-81
2021/11/02 16:15:43;;;;;;;1.17;0.45;;;9.40;99.90;;;;;;5011732;28;20042;-81
2021/11/02 16:18:16;;;;;;;4.13;0.60;;;9.40;99.90;;;;;;5018223;28;20027;-81
2021/11/02 16:20:44;;;;;;;0.95;0.70;;;9.30;99.90;;;;;;5008671;28;20045;-81
2021/11/02 16:23:15;;;;;;;1.55;1.42;;;9.20;99.90;;;;;;5002110;28;20030;-81
2021/11/02 16:25:48;;;;;;;4.03;1.58;;;9.20;99.90;;;;;;4991399;28;20578;-81
2021/11/02 16:28:18;;;;;;;0.93;0.70;;;9.10;99.90;;;;;;4980596;28;20034;-81
2021/11/02 16:30:48;;;;;;;1.85;0.50;;;9.10;99.90;;;;;;4983478;28;20117;-80
2021/11/02 16:33:14;;;;;;;0.47;0.40;;;9.10;99.90;;;;;;5000430;28;20026;-81
2021/11/02 16:35:48;;;;;;;0.70;0.40;;;9.10;99.90;;;;;;5001185;28;20018;-81
2021/11/02 16:38:35;;;;;;;1.23;0.70;;;9.20;99.90;;;;;;5003196;28;20465;-79
2021/11/02 16:41:06;;;;;;;1.88;0.45;;;9.30;99.90;;;;;;4999221;28;20024;-80
2021/11/02 16:43:34;;;;;;;0.93;0.50;;;9.30;99.90;;;;;;4999351;28;20041;-82
2021/11/02 16:46:08;;;;;;;1.80;0.47;;;9.40;99.90;;;;;;5000703;28;20082;-79
2021/11/02 16:48:35;;;;;;;2.03;0.40;;;9.40;99.90;;;;;;5000032;28;20130;-80
2021/11/02 16:51:01;;;;;;;1.50;0.70;;;9.40;99.90;;;;;;5000446;28;20077;-80
2021/11/02 16:53:27;;;;;;;2.53;0.52;;;9.40;99.90;;;;;;4999921;28;20117;-81
2021/11/02 16:55:53;;;;;;;1.75;0.60;;;9.40;99.90;;;;;;5001547;28;20057;-82
2021/11/02 16:58:19;;;;;;;0.93;0.60;;;9.40;99.90;;;;;;5000612;28;20022;-82
2021/11/02 17:00:45;;;;;;;0.60;0.60;;;9.20;99.90;;;;;;4999507;28;20030;-82
2021/11/02 17:03:14;;;;;;;5.00;0.80;;;9.20;99.90;;;;;;5000870;28;20502;-81
2021/11/02 17:05:40;;;;;;;0.93;0.52;;;9.10;99.90;;;;;;5000906;28;20034;-82
2021/11/02 17:08:09;;;;;;;1.00;0.60;;;9.00;99.90;;;;;;5000521;28;20053;-79
2021/11/02 17:11:06;;;;;;;1.05;0.75;;;8.90;99.90;;;;;;4999252;28;20026;-80
2021/11/02 17:13:37;;;;;;;5.60;1.58;;;8.80;99.90;;;;;;4994845;28;20057;-79
2021/11/02 17:16:14;;;;;;;1.15;0.80;;;8.80;99.90;;;;;;5001803;28;20022;-80
2021/11/02 17:19:04;;;;;;;1.90;0.73;;;8.80;99.90;;;;;;5013810;28;20022;-82
2021/11/02 17:21:37;;;;;;;0.65;0.60;;;8.80;99.90;;;;;;5014736;28;20049;-80
2021/11/02 17:24:05;;;;;;;1.88;0.80;;;8.80;99.90;;;;;;5010448;28;20018;-81
2021/11/02 17:26:33;;;;;;;1.75;0.88;;;8.80;99.90;;;;;;5002309;28;20070;-79
2021/11/02 17:29:00;;;;;;;1.80;1.17;;;8.70;99.90;;;;;;5001453;28;20029;-81
2021/11/02 17:31:29;;;;;;;1.85;1.33;;;8.60;99.90;;;;;;5000724;28;20041;-80
2021/11/02 17:33:56;;;;;;;1.10;1.00;;;8.50;99.90;;;;;;5000253;28;20022;-80
2021/11/02 17:36:23;;;;;;;1.30;1.02;;;8.50;99.90;;;;;;4999898;28;20022;-82
2021/11/02 17:38:51;;;;;;;3.38;1.40;;;8.40;99.90;;;;;;5001267;28;20474;-82
2021/11/02 17:41:17;;;;;;;2.20;1.55;;;8.30;99.90;;;;;;5001501;28;20033;-80
2021/11/02 17:43:46;;;;;;;2.58;1.10;;;8.30;99.90;;;;;;5000706;28;20437;-82
2021/11/02 17:46:15;;;;;;;1.60;1.17;;;8.30;99.90;;;;;;5000737;28;20045;-83
2021/11/02 17:48:41;;;;;;;3.78;1.48;;;8.30;99.90;;;;;;5020082;23;20042;-83
2021/11/02 17:51:07;;;;;;;2.35;1.88;;;8.30;99.90;;;;;;4995240;28;20022;-82
2021/11/02 17:53:37;;;;;;;2.80;1.83;;;8.30;99.90;;;;;;4998772;28;20062;-82
2021/11/02 17:56:07;;;;;;;2.97;1.27;;;8.20;99.90;;;;;;5000483;28;20030;-78
2021/11/02 17:58:34;;;;;;;2.53;1.50;;;8.20;99.90;;;;;;5002730;28;20463;-79
2021/11/02 18:01:02;;;;;;;1.70;1.60;;;8.10;99.90;;;;;;5005143;28;20030;-81
2021/11/02 18:03:33;;;;;;;13.35;8.00;;;8.10;99.90;;;;;;5007091;28;20026;-81
2021/11/02 18:06:03;;;;;;;2.83;2.47;;;8.00;99.90;;;;;;5018862;28;20022;-80
2021/11/02 18:08:33;;;;;;;2.35;1.73;;;7.90;99.90;;;;;;5008071;28;20034;-80
2021/11/02 18:11:00;;;;;;;7.00;2.50;;;7.90;99.90;;;;;;5001686;28;20440;-81
2021/11/02 18:13:27;;;;;;;5.47;2.47;;;7.90;99.90;;;;;;4999340;28;20050;-79
2021/11/02 18:15:54;;;;;;;2.35;1.58;;;7.90;99.90;;;;;;5000839;28;20050;-79
2021/11/02 18:18:21;;;;;;;3.65;2.00;;;7.90;99.90;;;;;;4998977;28;20449;-79
2021/11/02 18:20:47;;;;;;;3.35;1.67;;;7.90;99.90;;;;;;5002332;28;20113;-82